Youngstown, Ohio
Current Conditions -  °F | °C
As of 8:51 AM on Wednesday 26 Nov 2014 (Local Time) from KYNG Reporting Station
Overcast Overcast  
Wind Chill: -5°   Ceiling: 9000
Heat Index: -1°   Visibility: 10mi
Dew Point: -4°   Wind: 8mph
Humidity: 79%   Direction: 30°NNE
Pressure: 30.08"   Gusts: NA
Location:  41.1°N, 80.65°W
Report Text: KYNG 261351Z 03007KT 10SM SCT031 OVC090 M01/M04 A3008 RMK AO2 SLP199 T10061039
Loading
Personal Weather Stations






























Interactive Weather Map New forecast layout! Learn more

10-Day Weather Forecast

Advertisements
Track Severe Weather on mobile